Solomon Sea — WDE5022 — position and weather

sailwx.info

Track history (hours):
 
Tides and Currents Weather Stations Pressure Air Temp Water Temp Dewpoint Dewpoint Depression Visibility Wind Speed Wind Dir Waves Ship Positions

Solomon Sea

Owner: Kirby Offshore Marine, LLC, Staten Island, NY. More information available from US FCC via Universal Licensing System and Coast Guard Vessel Documentation Center.

Last reported at 2017-Oct-18 09:31 UTC. Time now 2017-Oct-18 09:37 UTC.
Position N 41°10' W 072°33'.

Length 29 m; draft 3.5 m.

Type: Towing. MMSI: 367360960.

Date/timePositionNaut miles runAvg speedWind from/ knotsBaromVisibWave heightAir tempDewpointWater temp
2017-Oct-18 09:31N 41°10' W 072°33'3 6.2
2017-Oct-18 09:01N 41°10' W 072°29'3 5.6
2017-Oct-18 08:31N 41°11' W 072°25'2 4.9
2017-Oct-18 08:01N 41°11' W 072°22'2 4.3
2017-Oct-18 07:28N 41°12' W 072°19'6 0.7
2017-Oct-17 23:18N 41°14' W 072°12'2 5.8
2017-Oct-17 22:56N 41°14' W 072°15'3 6.2
2017-Oct-17 22:28N 41°13' W 072°18'3 6.2
2017-Oct-17 22:00N 41°12' W 072°22'3 6.5
2017-Oct-17 21:29N 41°11' W 072°26'4 7.3
2017-Oct-17 20:54N 41°10' W 072°32'3 7.8
2017-Oct-17 20:29N 41°10' W 072°36'1 0.3
2017-Oct-17 16:14N 41°10' W 072°38'2 5.8
2017-Oct-17 15:57N 41°11' W 072°36'3 5.7
2017-Oct-17 15:31N 41°11' W 072°32'3 5.7
2017-Oct-17 15:00N 41°11' W 072°29'3 6.7
2017-Oct-17 14:30N 41°12' W 072°24'5 7.4
2017-Oct-17 13:53N 41°12' W 072°18'6 0.8
2017-Oct-17 06:12N 41°14' W 072°11'3 9.6
2017-Oct-17 05:52N 41°13' W 072°14'4 9.8
2017-Oct-17 05:30N 41°12' W 072°19'6 9.7
2017-Oct-17 04:51N 41°10' W 072°27'4 9.4
2017-Oct-17 04:24N 41°10' W 072°33'7 1.8
2017-Oct-17 00:37N 41°10' W 072°41'1 7.4
2017-Oct-17 00:29N 41°10' W 072°40'4 7.5
2017-Oct-17 00:00N 41°10' W 072°35'4 7.8
2017-Oct-16 23:30N 41°10' W 072°30'4 8.0
2017-Oct-16 23:01N 41°11' W 072°25'5 8.7
2017-Oct-16 22:29N 41°13' W 072°19'8 1.2
2017-Oct-16 15:45N 41°15' W 072°09'3 9.5
2017-Oct-16 15:28N 41°14' W 072°12'5 9.5
2017-Oct-16 14:56N 41°13' W 072°19'4 9.3
2017-Oct-16 14:31N 41°12' W 072°24'9 8.5
2017-Oct-16 13:30N 41°11' W 072°35'5 1.2
2017-Oct-16 09:33N 41°10' W 072°41'2 7.6
2017-Oct-16 09:21N 41°10' W 072°39'3 7.7
2017-Oct-16 09:00N 41°10' W 072°36'4 7.8
2017-Oct-16 08:30N 41°10' W 072°30'4 7.5
2017-Oct-16 08:00N 41°11' W 072°25'4 6.8
2017-Oct-16 07:29N 41°12' W 072°21'  
2017-Oct-13 01:16N 41°12' W 072°17'2 8.5
2017-Oct-13 01:01N 41°11' W 072°20'10 8.6
2017-Oct-12 23:51N 41°10' W 072°33'4 0.8
2017-Oct-12 19:07N 41°10' W 072°38'1 7.6
2017-Oct-12 19:00N 41°10' W 072°37'4 7.8
2017-Oct-12 18:31N 41°10' W 072°32'4 8.2
2017-Oct-12 18:00N 41°11' W 072°26'4 8.2
2017-Oct-12 17:30N 41°12' W 072°21'  
2017-Oct-09 18:29N 41°12' W 072°17'3 6.0
2017-Oct-09 18:00N 41°10' W 072°21'71 5.7
2017-Oct-09 05:33N 40°48' W 073°49'2 5.6
2017-Oct-09 05:09N 40°48' W 073°52'1 5.6
2017-Oct-09 04:55N 40°48' W 073°54'3 5.8
2017-Oct-09 04:28N 40°46' W 073°57'3 6.7
2017-Oct-09 04:00N 40°43' W 073°58'4 7.3
2017-Oct-09 03:30N 40°41' W 074°01'3 6.4
2017-Oct-09 03:00N 40°39' W 074°05'3 5.7
2017-Oct-09 02:30N 40°38' W 074°09'3 5.1
2017-Oct-09 02:00N 40°41' W 074°08'0 0.8
2017-Oct-09 01:30N 40°41' W 074°08'0 0.0
2017-Oct-09 01:00N 40°41' W 074°08'0 0.0
2017-Oct-09 00:30N 40°41' W 074°08'0 0.0
2017-Oct-09 00:00N 40°41' W 074°08'0 0.0
2017-Oct-08 23:30N 40°41' W 074°08'0 0.0
2017-Oct-08 23:00N 40°41' W 074°08'0 0.0
2017-Oct-08 22:30N 40°41' W 074°08'0 0.0
2017-Oct-08 22:01N 40°41' W 074°08'0 0.0
2017-Oct-08 21:30N 40°41' W 074°08'0 0.0
2017-Oct-08 21:00N 40°41' W 074°08'0 0.0
2017-Oct-08 20:30N 40°41' W 074°08'0 0.0
2017-Oct-08 20:00N 40°41' W 074°08'0 0.0
2017-Oct-08 19:30N 40°41' W 074°08'0 0.0
2017-Oct-08 18:59N 40°41' W 074°08'0 0.0
2017-Oct-08 18:30N 40°41' W 074°08'0 0.0
2017-Oct-08 17:59N 40°41' W 074°08'0 0.0
2017-Oct-08 17:30N 40°41' W 074°08'0 0.0
2017-Oct-08 17:00N 40°41' W 074°08'0 0.0
2017-Oct-08 16:31N 40°41' W 074°08'0 0.0
2017-Oct-08 16:00N 40°41' W 074°08'0 0.0
2017-Oct-08 15:30N 40°41' W 074°08'0 0.0
2017-Oct-08 15:00N 40°41' W 074°08'0 0.0
2017-Oct-08 14:30N 40°41' W 074°08'0 0.0
2017-Oct-08 14:00N 40°41' W 074°08'0 0.0
2017-Oct-08 13:30N 40°41' W 074°08'0 0.0
2017-Oct-08 13:00N 40°41' W 074°08'0 0.0
2017-Oct-08 12:30N 40°41' W 074°08'0 0.0
2017-Oct-08 12:00N 40°41' W 074°08'0 0.0
2017-Oct-08 11:31N 40°41' W 074°08'0 0.6
2017-Oct-08 11:00N 40°42' W 074°08'1 1.0
2017-Oct-08 10:17N 40°42' W 074°09'0 0.0
2017-Oct-08 10:00N 40°42' W 074°09'  
Track history (hours):
 
Tides and Currents Weather Stations Pressure Air Temp Water Temp Dewpoint Dewpoint Depression Visibility Wind Speed Wind Dir Waves Ship Positions

Solomon Sea

Owner: Kirby Offshore Marine, LLC, Staten Island, NY. More information available from US FCC via Universal Licensing System and Coast Guard Vessel Documentation Center.

Last reported at 2017-Oct-18 09:31 UTC. Time now 2017-Oct-18 09:37 UTC.
Position N 41°10' W 072°33'.

Length 29 m; draft 3.5 m.

Type: Towing. MMSI: 367360960.

Date/timePositionNaut miles runAvg speedWind from/ knotsBaromVisibWave heightAir tempDewpointWater temp
2017-Oct-18 09:31N 41°10' W 072°33'3 6.2
2017-Oct-18 09:01N 41°10' W 072°29'3 5.6
2017-Oct-18 08:31N 41°11' W 072°25'2 4.9
2017-Oct-18 08:01N 41°11' W 072°22'2 4.3
2017-Oct-18 07:28N 41°12' W 072°19'6 0.7
2017-Oct-17 23:18N 41°14' W 072°12'2 5.8
2017-Oct-17 22:56N 41°14' W 072°15'3 6.2
2017-Oct-17 22:28N 41°13' W 072°18'3 6.2
2017-Oct-17 22:00N 41°12' W 072°22'3 6.5
2017-Oct-17 21:29N 41°11' W 072°26'4 7.3
2017-Oct-17 20:54N 41°10' W 072°32'3 7.8
2017-Oct-17 20:29N 41°10' W 072°36'1 0.3
2017-Oct-17 16:14N 41°10' W 072°38'2 5.8
2017-Oct-17 15:57N 41°11' W 072°36'3 5.7
2017-Oct-17 15:31N 41°11' W 072°32'3 5.7
2017-Oct-17 15:00N 41°11' W 072°29'3 6.7
2017-Oct-17 14:30N 41°12' W 072°24'5 7.4
2017-Oct-17 13:53N 41°12' W 072°18'6 0.8
2017-Oct-17 06:12N 41°14' W 072°11'3 9.6
2017-Oct-17 05:52N 41°13' W 072°14'4 9.8
2017-Oct-17 05:30N 41°12' W 072°19'6 9.7
2017-Oct-17 04:51N 41°10' W 072°27'4 9.4
2017-Oct-17 04:24N 41°10' W 072°33'7 1.8
2017-Oct-17 00:37N 41°10' W 072°41'1 7.4
2017-Oct-17 00:29N 41°10' W 072°40'4 7.5
2017-Oct-17 00:00N 41°10' W 072°35'4 7.8
2017-Oct-16 23:30N 41°10' W 072°30'4 8.0
2017-Oct-16 23:01N 41°11' W 072°25'5 8.7
2017-Oct-16 22:29N 41°13' W 072°19'8 1.2
2017-Oct-16 15:45N 41°15' W 072°09'3 9.5
2017-Oct-16 15:28N 41°14' W 072°12'5 9.5
2017-Oct-16 14:56N 41°13' W 072°19'4 9.3
2017-Oct-16 14:31N 41°12' W 072°24'9 8.5
2017-Oct-16 13:30N 41°11' W 072°35'5 1.2
2017-Oct-16 09:33N 41°10' W 072°41'2 7.6
2017-Oct-16 09:21N 41°10' W 072°39'3 7.7
2017-Oct-16 09:00N 41°10' W 072°36'4 7.8
2017-Oct-16 08:30N 41°10' W 072°30'4 7.5
2017-Oct-16 08:00N 41°11' W 072°25'4 6.8
2017-Oct-16 07:29N 41°12' W 072°21'  
2017-Oct-13 01:16N 41°12' W 072°17'2 8.5
2017-Oct-13 01:01N 41°11' W 072°20'10 8.6
2017-Oct-12 23:51N 41°10' W 072°33'4 0.8
2017-Oct-12 19:07N 41°10' W 072°38'1 7.6
2017-Oct-12 19:00N 41°10' W 072°37'4 7.8
2017-Oct-12 18:31N 41°10' W 072°32'4 8.2
2017-Oct-12 18:00N 41°11' W 072°26'4 8.2
2017-Oct-12 17:30N 41°12' W 072°21'  
2017-Oct-09 18:29N 41°12' W 072°17'3 6.0
2017-Oct-09 18:00N 41°10' W 072°21'71 5.7
2017-Oct-09 05:33N 40°48' W 073°49'2 5.6
2017-Oct-09 05:09N 40°48' W 073°52'1 5.6
2017-Oct-09 04:55N 40°48' W 073°54'3 5.8
2017-Oct-09 04:28N 40°46' W 073°57'3 6.7
2017-Oct-09 04:00N 40°43' W 073°58'4 7.3
2017-Oct-09 03:30N 40°41' W 074°01'3 6.4
2017-Oct-09 03:00N 40°39' W 074°05'3 5.7
2017-Oct-09 02:30N 40°38' W 074°09'3 5.1
2017-Oct-09 02:00N 40°41' W 074°08'0 0.8
2017-Oct-09 01:30N 40°41' W 074°08'0 0.0
2017-Oct-09 01:00N 40°41' W 074°08'0 0.0
2017-Oct-09 00:30N 40°41' W 074°08'0 0.0
2017-Oct-09 00:00N 40°41' W 074°08'0 0.0
2017-Oct-08 23:30N 40°41' W 074°08'0 0.0
2017-Oct-08 23:00N 40°41' W 074°08'0 0.0
2017-Oct-08 22:30N 40°41' W 074°08'0 0.0
2017-Oct-08 22:01N 40°41' W 074°08'0 0.0
2017-Oct-08 21:30N 40°41' W 074°08'0 0.0
2017-Oct-08 21:00N 40°41' W 074°08'0 0.0
2017-Oct-08 20:30N 40°41' W 074°08'0 0.0
2017-Oct-08 20:00N 40°41' W 074°08'0 0.0
2017-Oct-08 19:30N 40°41' W 074°08'0 0.0
2017-Oct-08 18:59N 40°41' W 074°08'0 0.0
2017-Oct-08 18:30N 40°41' W 074°08'0 0.0
2017-Oct-08 17:59N 40°41' W 074°08'0 0.0
2017-Oct-08 17:30N 40°41' W 074°08'0 0.0
2017-Oct-08 17:00N 40°41' W 074°08'0 0.0
2017-Oct-08 16:31N 40°41' W 074°08'0 0.0
2017-Oct-08 16:00N 40°41' W 074°08'0 0.0
2017-Oct-08 15:30N 40°41' W 074°08'0 0.0
2017-Oct-08 15:00N 40°41' W 074°08'0 0.0
2017-Oct-08 14:30N 40°41' W 074°08'0 0.0
2017-Oct-08 14:00N 40°41' W 074°08'0 0.0
2017-Oct-08 13:30N 40°41' W 074°08'0 0.0
2017-Oct-08 13:00N 40°41' W 074°08'0 0.0
2017-Oct-08 12:30N 40°41' W 074°08'0 0.0
2017-Oct-08 12:00N 40°41' W 074°08'0 0.0
2017-Oct-08 11:31N 40°41' W 074°08'0 0.6
2017-Oct-08 11:00N 40°42' W 074°08'1 1.0
2017-Oct-08 10:17N 40°42' W 074°09'0 0.0
2017-Oct-08 10:00N 40°42' W 074°09'  

Dump ship's entire track history